sensor_id;sensor_type;location;lat;lon;timestamp;P1;durP1;ratioP1;P2;durP2;ratioP2
48777;SDS011;34578;0.000;0.000;2023-06-14T00:02:15;3.13;;;2.58;;
48777;SDS011;34578;0.000;0.000;2023-06-14T00:07:15;2.92;;;2.60;;
48777;SDS011;34578;0.000;0.000;2023-06-14T00:12:16;3.60;;;2.95;;
48777;SDS011;34578;0.000;0.000;2023-06-14T00:17:17;4.13;;;2.90;;
48777;SDS011;34578;0.000;0.000;2023-06-14T00:22:17;3.28;;;2.97;;
48777;SDS011;34578;0.000;0.000;2023-06-14T00:27:17;4.03;;;2.97;;
48777;SDS011;34578;0.000;0.000;2023-06-14T00:32:18;2.97;;;2.67;;
48777;SDS011;34578;0.000;0.000;2023-06-14T00:37:18;2.67;;;2.42;;
48777;SDS011;34578;0.000;0.000;2023-06-14T00:42:26;5.53;;;2.93;;
48777;SDS011;34578;0.000;0.000;2023-06-14T00:47:27;4.85;;;3.00;;
48777;SDS011;34578;0.000;0.000;2023-06-14T00:52:28;3.10;;;2.80;;
48777;SDS011;34578;0.000;0.000;2023-06-14T00:57:31;3.55;;;2.97;;
48777;SDS011;34578;0.000;0.000;2023-06-14T01:02:32;4.90;;;3.03;;
48777;SDS011;34578;0.000;0.000;2023-06-14T01:18:07;2.97;;;2.60;;
48777;SDS011;34578;0.000;0.000;2023-06-14T01:23:08;2.90;;;2.60;;
48777;SDS011;34578;0.000;0.000;2023-06-14T01:28:08;2.70;;;2.27;;
48777;SDS011;34578;0.000;0.000;2023-06-14T01:33:13;2.85;;;2.55;;
48777;SDS011;34578;0.000;0.000;2023-06-14T01:38:15;3.33;;;2.70;;
48777;SDS011;34578;0.000;0.000;2023-06-14T01:43:18;3.97;;;2.78;;
48777;SDS011;34578;0.000;0.000;2023-06-14T01:48:18;3.78;;;3.00;;
48777;SDS011;34578;0.000;0.000;2023-06-14T01:53:20;4.80;;;3.10;;
48777;SDS011;34578;0.000;0.000;2023-06-14T01:58:20;3.00;;;2.70;;
48777;SDS011;34578;0.000;0.000;2023-06-14T02:03:21;3.72;;;2.45;;
48777;SDS011;34578;0.000;0.000;2023-06-14T02:08:21;5.77;;;3.10;;
48777;SDS011;34578;0.000;0.000;2023-06-14T02:13:22;3.00;;;2.70;;
48777;SDS011;34578;0.000;0.000;2023-06-14T02:18:24;5.70;;;3.00;;
48777;SDS011;34578;0.000;0.000;2023-06-14T02:23:25;3.35;;;2.75;;
48777;SDS011;34578;0.000;0.000;2023-06-14T02:28:25;5.00;;;2.53;;
48777;SDS011;34578;0.000;0.000;2023-06-14T02:33:26;3.23;;;2.87;;
48777;SDS011;34578;0.000;0.000;2023-06-14T02:38:26;3.28;;;2.78;;
48777;SDS011;34578;0.000;0.000;2023-06-14T02:43:28;3.53;;;2.40;;
48777;SDS011;34578;0.000;0.000;2023-06-14T02:48:29;4.85;;;3.03;;
48777;SDS011;34578;0.000;0.000;2023-06-14T02:53:30;3.55;;;2.97;;
48777;SDS011;34578;0.000;0.000;2023-06-14T02:58:30;4.43;;;2.90;;
48777;SDS011;34578;0.000;0.000;2023-06-14T03:03:31;2.70;;;2.38;;
48777;SDS011;34578;0.000;0.000;2023-06-14T03:08:32;4.57;;;2.60;;
48777;SDS011;34578;0.000;0.000;2023-06-14T03:13:40;2.88;;;2.58;;
48777;SDS011;34578;0.000;0.000;2023-06-14T03:18:41;3.33;;;2.85;;
48777;SDS011;34578;0.000;0.000;2023-06-14T03:23:42;3.60;;;2.70;;
48777;SDS011;34578;0.000;0.000;2023-06-14T03:28:45;2.95;;;2.65;;
48777;SDS011;34578;0.000;0.000;2023-06-14T03:33:47;5.07;;;3.25;;
48777;SDS011;34578;0.000;0.000;2023-06-14T03:38:47;3.83;;;2.80;;
48777;SDS011;34578;0.000;0.000;2023-06-14T03:43:50;6.80;;;2.80;;
48777;SDS011;34578;0.000;0.000;2023-06-14T03:48:51;4.60;;;3.13;;
48777;SDS011;34578;0.000;0.000;2023-06-14T03:53:52;3.75;;;2.97;;
48777;SDS011;34578;0.000;0.000;2023-06-14T03:58:52;3.38;;;2.70;;
48777;SDS011;34578;0.000;0.000;2023-06-14T04:03:57;6.47;;;3.17;;
48777;SDS011;34578;0.000;0.000;2023-06-14T04:08:59;4.53;;;3.53;;
48777;SDS011;34578;0.000;0.000;2023-06-14T04:14:03;5.75;;;2.60;;
48777;SDS011;34578;0.000;0.000;2023-06-14T04:19:03;3.58;;;3.00;;
48777;SDS011;34578;0.000;0.000;2023-06-14T04:24:04;5.53;;;3.43;;
48777;SDS011;34578;0.000;0.000;2023-06-14T04:29:07;4.60;;;3.20;;
48777;SDS011;34578;0.000;0.000;2023-06-14T04:34:14;5.00;;;3.28;;
48777;SDS011;34578;0.000;0.000;2023-06-14T04:39:23;4.28;;;2.55;;
48777;SDS011;34578;0.000;0.000;2023-06-14T04:44:25;3.83;;;2.80;;
48777;SDS011;34578;0.000;0.000;2023-06-14T04:49:30;4.38;;;3.20;;
48777;SDS011;34578;0.000;0.000;2023-06-14T04:54:32;4.10;;;2.75;;
48777;SDS011;34578;0.000;0.000;2023-06-14T04:59:35;5.63;;;2.47;;
48777;SDS011;34578;0.000;0.000;2023-06-14T05:04:36;4.13;;;2.58;;
48777;SDS011;34578;0.000;0.000;2023-06-14T05:09:40;5.60;;;3.22;;
48777;SDS011;34578;0.000;0.000;2023-06-14T05:14:40;3.27;;;2.70;;
48777;SDS011;34578;0.000;0.000;2023-06-14T05:19:43;5.85;;;2.78;;
48777;SDS011;34578;0.000;0.000;2023-06-14T05:24:44;3.95;;;2.42;;
48777;SDS011;34578;0.000;0.000;2023-06-14T05:29:46;6.72;;;3.10;;
48777;SDS011;34578;0.000;0.000;2023-06-14T05:34:46;5.30;;;2.40;;
48777;SDS011;34578;0.000;0.000;2023-06-14T05:39:46;7.30;;;3.10;;
48777;SDS011;34578;0.000;0.000;2023-06-14T05:44:47;2.53;;;2.33;;
48777;SDS011;34578;0.000;0.000;2023-06-14T05:49:47;3.13;;;2.60;;
48777;SDS011;34578;0.000;0.000;2023-06-14T05:54:47;4.13;;;2.53;;
48777;SDS011;34578;0.000;0.000;2023-06-14T05:59:48;5.10;;;2.53;;
48777;SDS011;34578;0.000;0.000;2023-06-14T06:04:48;4.70;;;3.05;;
48777;SDS011;34578;0.000;0.000;2023-06-14T06:09:48;4.30;;;2.83;;
48777;SDS011;34578;0.000;0.000;2023-06-14T06:14:49;2.63;;;2.40;;
48777;SDS011;34578;0.000;0.000;2023-06-14T06:19:49;2.93;;;2.30;;
48777;SDS011;34578;0.000;0.000;2023-06-14T06:24:49;4.27;;;2.67;;
48777;SDS011;34578;0.000;0.000;2023-06-14T06:29:50;2.75;;;2.40;;
48777;SDS011;34578;0.000;0.000;2023-06-14T06:34:51;2.90;;;2.60;;
48777;SDS011;34578;0.000;0.000;2023-06-14T06:39:52;2.30;;;1.90;;
48777;SDS011;34578;0.000;0.000;2023-06-14T06:44:52;2.63;;;2.43;;
48777;SDS011;34578;0.000;0.000;2023-06-14T06:49:53;2.38;;;2.03;;
48777;SDS011;34578;0.000;0.000;2023-06-14T06:54:53;2.53;;;2.33;;
48777;SDS011;34578;0.000;0.000;2023-06-14T06:59:56;3.10;;;2.63;;
48777;SDS011;34578;0.000;0.000;2023-06-14T07:04:57;3.60;;;2.38;;
48777;SDS011;34578;0.000;0.000;2023-06-14T07:09:57;2.93;;;2.47;;
48777;SDS011;34578;0.000;0.000;2023-06-14T07:14:57;3.37;;;2.40;;
48777;SDS011;34578;0.000;0.000;2023-06-14T07:19:58;4.10;;;2.20;;
48777;SDS011;34578;0.000;0.000;2023-06-14T07:24:58;4.37;;;2.63;;
48777;SDS011;34578;0.000;0.000;2023-06-14T07:29:58;2.97;;;2.27;;
48777;SDS011;34578;0.000;0.000;2023-06-14T07:34:59;2.73;;;2.43;;
48777;SDS011;34578;0.000;0.000;2023-06-14T07:39:59;2.60;;;2.40;;
48777;SDS011;34578;0.000;0.000;2023-06-14T07:44:59;3.07;;;2.17;;
48777;SDS011;34578;0.000;0.000;2023-06-14T07:50:00;3.60;;;2.20;;
48777;SDS011;34578;0.000;0.000;2023-06-14T07:55:00;2.93;;;2.23;;
48777;SDS011;34578;0.000;0.000;2023-06-14T08:00:01;2.50;;;2.30;;
48777;SDS011;34578;0.000;0.000;2023-06-14T08:05:01;2.83;;;2.30;;
48777;SDS011;34578;0.000;0.000;2023-06-14T08:10:02;3.60;;;2.20;;
48777;SDS011;34578;0.000;0.000;2023-06-14T08:15:03;2.22;;;2.03;;
48777;SDS011;34578;0.000;0.000;2023-06-14T08:20:04;2.47;;;2.28;;
48777;SDS011;34578;0.000;0.000;2023-06-14T08:25:05;2.10;;;1.90;;
48777;SDS011;34578;0.000;0.000;2023-06-14T08:30:07;2.25;;;2.05;;
48777;SDS011;34578;0.000;0.000;2023-06-14T08:35:08;3.78;;;1.80;;
48777;SDS011;34578;0.000;0.000;2023-06-14T08:40:12;3.17;;;2.28;;
48777;SDS011;34578;0.000;0.000;2023-06-14T08:45:20;2.70;;;2.38;;
48777;SDS011;34578;0.000;0.000;2023-06-14T08:50:21;2.22;;;2.03;;
48777;SDS011;34578;0.000;0.000;2023-06-14T08:55:23;2.45;;;2.00;;
48777;SDS011;34578;0.000;0.000;2023-06-14T09:00:27;1.77;;;1.67;;
48777;SDS011;34578;0.000;0.000;2023-06-14T09:05:28;2.28;;;1.88;;
48777;SDS011;34578;0.000;0.000;2023-06-14T09:10:28;3.60;;;2.38;;
48777;SDS011;34578;0.000;0.000;2023-06-14T09:15:34;2.08;;;1.88;;
48777;SDS011;34578;0.000;0.000;2023-06-14T09:20:35;2.42;;;2.10;;
48777;SDS011;34578;0.000;0.000;2023-06-14T09:25:42;2.30;;;2.10;;
48777;SDS011;34578;0.000;0.000;2023-06-14T09:30:46;1.90;;;1.65;;
48777;SDS011;34578;0.000;0.000;2023-06-14T09:35:46;2.77;;;2.10;;
48777;SDS011;34578;0.000;0.000;2023-06-14T09:40:51;3.22;;;2.08;;
48777;SDS011;34578;0.000;0.000;2023-06-14T09:45:51;2.03;;;1.83;;
48777;SDS011;34578;0.000;0.000;2023-06-14T09:50:52;2.08;;;1.80;;
48777;SDS011;34578;0.000;0.000;2023-06-14T09:55:57;3.97;;;2.03;;
48777;SDS011;34578;0.000;0.000;2023-06-14T10:00:58;2.38;;;1.90;;
48777;SDS011;34578;0.000;0.000;2023-06-14T10:05:59;2.55;;;2.08;;
48777;SDS011;34578;0.000;0.000;2023-06-14T10:11:03;2.67;;;2.10;;
48777;SDS011;34578;0.000;0.000;2023-06-14T10:21:25;2.10;;;1.90;;
48777;SDS011;34578;0.000;0.000;2023-06-14T10:26:50;2.30;;;2.10;;
48777;SDS011;34578;0.000;0.000;2023-06-14T10:31:55;2.40;;;2.20;;
48777;SDS011;34578;0.000;0.000;2023-06-14T10:37:00;2.20;;;2.00;;
48777;SDS011;34578;0.000;0.000;2023-06-14T10:42:03;2.70;;;2.33;;
48777;SDS011;34578;0.000;0.000;2023-06-14T10:47:06;3.05;;;2.05;;
48777;SDS011;34578;0.000;0.000;2023-06-14T10:52:14;4.97;;;3.22;;
48777;SDS011;34578;0.000;0.000;2023-06-14T10:57:19;10.43;;;2.47;;
48777;SDS011;34578;0.000;0.000;2023-06-14T11:12:48;4.40;;;1.85;;
48777;SDS011;34578;0.000;0.000;2023-06-14T11:17:51;8.05;;;2.60;;
48777;SDS011;34578;0.000;0.000;2023-06-14T11:22:57;5.47;;;2.53;;
48777;SDS011;34578;0.000;0.000;2023-06-14T11:27:57;6.63;;;2.53;;
48777;SDS011;34578;0.000;0.000;2023-06-14T11:32:59;15.80;;;2.63;;
48777;SDS011;34578;0.000;0.000;2023-06-14T11:38:01;4.38;;;2.40;;
48777;SDS011;34578;0.000;0.000;2023-06-14T11:43:01;5.28;;;2.22;;
48777;SDS011;34578;0.000;0.000;2023-06-14T11:48:02;3.00;;;2.25;;
48777;SDS011;34578;0.000;0.000;2023-06-14T11:53:03;5.68;;;2.38;;
48777;SDS011;34578;0.000;0.000;2023-06-14T11:58:07;9.23;;;2.97;;
48777;SDS011;34578;0.000;0.000;2023-06-14T12:03:08;5.75;;;2.78;;
48777;SDS011;34578;0.000;0.000;2023-06-14T12:08:08;14.15;;;3.63;;
48777;SDS011;34578;0.000;0.000;2023-06-14T12:13:09;8.93;;;3.05;;
48777;SDS011;34578;0.000;0.000;2023-06-14T12:18:10;7.78;;;4.00;;
48777;SDS011;34578;0.000;0.000;2023-06-14T12:23:11;13.70;;;6.22;;
48777;SDS011;34578;0.000;0.000;2023-06-14T12:28:11;9.53;;;3.53;;
48777;SDS011;34578;0.000;0.000;2023-06-14T12:33:11;9.80;;;4.30;;
48777;SDS011;34578;0.000;0.000;2023-06-14T12:38:12;5.50;;;4.00;;
48777;SDS011;34578;0.000;0.000;2023-06-14T12:43:12;11.13;;;4.20;;
48777;SDS011;34578;0.000;0.000;2023-06-14T12:48:12;22.20;;;4.23;;
48777;SDS011;34578;0.000;0.000;2023-06-14T12:53:13;6.53;;;3.10;;
48777;SDS011;34578;0.000;0.000;2023-06-14T12:58:13;8.27;;;3.45;;
48777;SDS011;34578;0.000;0.000;2023-06-14T13:03:14;8.45;;;3.38;;
48777;SDS011;34578;0.000;0.000;2023-06-14T13:08:15;7.35;;;3.70;;
48777;SDS011;34578;0.000;0.000;2023-06-14T13:13:15;6.77;;;3.17;;
48777;SDS011;34578;0.000;0.000;2023-06-14T13:18:16;5.97;;;3.33;;
48777;SDS011;34578;0.000;0.000;2023-06-14T13:23:16;7.90;;;3.80;;
48777;SDS011;34578;0.000;0.000;2023-06-14T13:28:17;16.58;;;3.72;;
48777;SDS011;34578;0.000;0.000;2023-06-14T13:33:17;9.27;;;3.00;;
48777;SDS011;34578;0.000;0.000;2023-06-14T13:38:18;11.47;;;3.63;;
48777;SDS011;34578;0.000;0.000;2023-06-14T13:43:18;3.33;;;2.80;;
48777;SDS011;34578;0.000;0.000;2023-06-14T13:48:18;8.80;;;3.53;;
48777;SDS011;34578;0.000;0.000;2023-06-14T13:53:19;4.38;;;3.03;;
48777;SDS011;34578;0.000;0.000;2023-06-14T13:58:19;3.70;;;2.73;;
48777;SDS011;34578;0.000;0.000;2023-06-14T14:03:20;5.50;;;2.90;;
48777;SDS011;34578;0.000;0.000;2023-06-14T14:08:20;6.00;;;3.03;;
48777;SDS011;34578;0.000;0.000;2023-06-14T14:13:20;6.27;;;3.20;;
48777;SDS011;34578;0.000;0.000;2023-06-14T14:18:21;5.32;;;2.90;;
48777;SDS011;34578;0.000;0.000;2023-06-14T14:23:21;6.50;;;2.97;;
48777;SDS011;34578;0.000;0.000;2023-06-14T14:28:22;5.13;;;2.60;;
48777;SDS011;34578;0.000;0.000;2023-06-14T14:33:22;6.53;;;2.70;;
48777;SDS011;34578;0.000;0.000;2023-06-14T14:38:25;3.17;;;2.70;;
48777;SDS011;34578;0.000;0.000;2023-06-14T14:43:25;3.43;;;2.70;;
48777;SDS011;34578;0.000;0.000;2023-06-14T14:48:26;7.32;;;2.72;;
48777;SDS011;34578;0.000;0.000;2023-06-14T14:53:29;7.25;;;3.35;;
48777;SDS011;34578;0.000;0.000;2023-06-14T14:58:30;4.18;;;2.97;;
48777;SDS011;34578;0.000;0.000;2023-06-14T15:03:30;3.70;;;2.57;;
48777;SDS011;34578;0.000;0.000;2023-06-14T15:08:30;4.47;;;2.87;;
48777;SDS011;34578;0.000;0.000;2023-06-14T15:13:31;5.30;;;3.10;;
48777;SDS011;34578;0.000;0.000;2023-06-14T15:18:33;3.53;;;2.88;;
48777;SDS011;34578;0.000;0.000;2023-06-14T15:23:34;2.60;;;2.30;;
48777;SDS011;34578;0.000;0.000;2023-06-14T15:28:34;4.20;;;3.20;;
48777;SDS011;34578;0.000;0.000;2023-06-14T15:33:34;6.68;;;4.22;;
48777;SDS011;34578;0.000;0.000;2023-06-14T15:38:35;8.40;;;4.77;;
48777;SDS011;34578;0.000;0.000;2023-06-14T15:43:35;11.13;;;4.13;;
48777;SDS011;34578;0.000;0.000;2023-06-14T15:48:36;7.75;;;4.57;;
48777;SDS011;34578;0.000;0.000;2023-06-14T15:53:36;4.50;;;3.97;;
48777;SDS011;34578;0.000;0.000;2023-06-14T15:58:37;9.38;;;3.90;;
48777;SDS011;34578;0.000;0.000;2023-06-14T16:03:37;3.63;;;2.80;;
48777;SDS011;34578;0.000;0.000;2023-06-14T16:08:38;3.07;;;2.77;;
48777;SDS011;34578;0.000;0.000;2023-06-14T16:13:40;4.88;;;2.75;;
48777;SDS011;34578;0.000;0.000;2023-06-14T16:18:44;3.65;;;3.20;;
48777;SDS011;34578;0.000;0.000;2023-06-14T16:23:44;9.47;;;3.33;;
48777;SDS011;34578;0.000;0.000;2023-06-14T16:28:45;9.18;;;3.97;;
48777;SDS011;34578;0.000;0.000;2023-06-14T16:33:45;7.53;;;3.47;;
48777;SDS011;34578;0.000;0.000;2023-06-14T16:38:46;9.57;;;3.90;;
48777;SDS011;34578;0.000;0.000;2023-06-14T16:43:47;4.80;;;3.00;;
48777;SDS011;34578;0.000;0.000;2023-06-14T16:48:47;3.37;;;2.70;;
48777;SDS011;34578;0.000;0.000;2023-06-14T16:53:48;8.10;;;3.90;;
48777;SDS011;34578;0.000;0.000;2023-06-14T16:58:48;9.33;;;3.93;;
48777;SDS011;34578;0.000;0.000;2023-06-14T17:03:48;4.80;;;3.47;;
48777;SDS011;34578;0.000;0.000;2023-06-14T17:08:50;5.57;;;3.60;;
48777;SDS011;34578;0.000;0.000;2023-06-14T17:13:51;4.43;;;3.03;;
48777;SDS011;34578;0.000;0.000;2023-06-14T17:18:52;6.90;;;3.72;;
48777;SDS011;34578;0.000;0.000;2023-06-14T17:23:52;5.33;;;3.67;;
48777;SDS011;34578;0.000;0.000;2023-06-14T17:28:53;5.77;;;2.73;;
48777;SDS011;34578;0.000;0.000;2023-06-14T17:33:54;3.85;;;3.45;;
48777;SDS011;34578;0.000;0.000;2023-06-14T17:38:55;6.78;;;3.35;;
48777;SDS011;34578;0.000;0.000;2023-06-14T17:43:55;5.90;;;3.40;;
48777;SDS011;34578;0.000;0.000;2023-06-14T17:48:56;5.80;;;3.40;;
48777;SDS011;34578;0.000;0.000;2023-06-14T17:53:56;20.03;;;4.70;;
48777;SDS011;34578;0.000;0.000;2023-06-14T17:58:57;4.27;;;3.07;;
48777;SDS011;34578;0.000;0.000;2023-06-14T18:03:59;3.53;;;3.00;;
48777;SDS011;34578;0.000;0.000;2023-06-14T18:08:59;6.30;;;3.07;;
48777;SDS011;34578;0.000;0.000;2023-06-14T18:13:59;6.17;;;2.70;;
48777;SDS011;34578;0.000;0.000;2023-06-14T18:19:00;3.78;;;2.70;;
48777;SDS011;34578;0.000;0.000;2023-06-14T18:24:00;3.90;;;2.90;;
48777;SDS011;34578;0.000;0.000;2023-06-14T18:29:01;8.93;;;3.08;;
48777;SDS011;34578;0.000;0.000;2023-06-14T18:34:02;7.00;;;2.90;;
48777;SDS011;34578;0.000;0.000;2023-06-14T18:39:02;5.20;;;3.00;;
48777;SDS011;34578;0.000;0.000;2023-06-14T18:44:02;6.05;;;3.40;;
48777;SDS011;34578;0.000;0.000;2023-06-14T18:49:03;5.70;;;2.80;;
48777;SDS011;34578;0.000;0.000;2023-06-14T18:54:03;4.93;;;2.77;;
48777;SDS011;34578;0.000;0.000;2023-06-14T18:59:04;4.75;;;3.10;;
48777;SDS011;34578;0.000;0.000;2023-06-14T19:04:04;4.10;;;2.97;;
48777;SDS011;34578;0.000;0.000;2023-06-14T19:09:05;2.50;;;2.30;;
48777;SDS011;34578;0.000;0.000;2023-06-14T19:14:05;4.57;;;2.90;;
48777;SDS011;34578;0.000;0.000;2023-06-14T19:19:06;4.35;;;3.30;;
48777;SDS011;34578;0.000;0.000;2023-06-14T19:24:06;4.23;;;3.00;;
48777;SDS011;34578;0.000;0.000;2023-06-14T19:29:06;3.23;;;2.83;;
48777;SDS011;34578;0.000;0.000;2023-06-14T19:34:07;3.87;;;2.97;;
48777;SDS011;34578;0.000;0.000;2023-06-14T19:39:07;3.47;;;2.57;;
48777;SDS011;34578;0.000;0.000;2023-06-14T19:44:07;3.43;;;2.70;;
48777;SDS011;34578;0.000;0.000;2023-06-14T19:49:08;5.03;;;2.70;;
48777;SDS011;34578;0.000;0.000;2023-06-14T19:54:08;4.27;;;3.00;;
48777;SDS011;34578;0.000;0.000;2023-06-14T19:59:08;3.37;;;2.90;;
48777;SDS011;34578;0.000;0.000;2023-06-14T20:04:09;3.57;;;2.90;;
48777;SDS011;34578;0.000;0.000;2023-06-14T20:09:09;4.18;;;3.10;;
48777;SDS011;34578;0.000;0.000;2023-06-14T20:14:13;4.57;;;2.50;;
48777;SDS011;34578;0.000;0.000;2023-06-14T20:19:13;3.00;;;2.60;;
48777;SDS011;34578;0.000;0.000;2023-06-14T20:24:14;3.55;;;2.40;;
48777;SDS011;34578;0.000;0.000;2023-06-14T20:29:14;3.15;;;2.85;;
48777;SDS011;34578;0.000;0.000;2023-06-14T20:34:15;4.27;;;2.53;;
48777;SDS011;34578;0.000;0.000;2023-06-14T20:39:15;6.23;;;2.80;;
48777;SDS011;34578;0.000;0.000;2023-06-14T20:44:15;7.80;;;3.10;;
48777;SDS011;34578;0.000;0.000;2023-06-14T20:49:16;4.95;;;3.33;;
48777;SDS011;34578;0.000;0.000;2023-06-14T20:54:17;3.83;;;2.83;;
48777;SDS011;34578;0.000;0.000;2023-06-14T20:59:17;5.50;;;3.07;;
48777;SDS011;34578;0.000;0.000;2023-06-14T21:04:17;3.23;;;2.67;;
48777;SDS011;34578;0.000;0.000;2023-06-14T21:09:18;2.90;;;2.60;;
48777;SDS011;34578;0.000;0.000;2023-06-14T21:14:18;2.70;;;2.50;;
48777;SDS011;34578;0.000;0.000;2023-06-14T21:19:18;3.87;;;2.83;;
48777;SDS011;34578;0.000;0.000;2023-06-14T21:24:19;2.97;;;2.40;;
48777;SDS011;34578;0.000;0.000;2023-06-14T21:29:19;2.90;;;2.60;;
48777;SDS011;34578;0.000;0.000;2023-06-14T21:34:19;5.00;;;2.83;;
48777;SDS011;34578;0.000;0.000;2023-06-14T21:39:20;5.87;;;2.87;;
48777;SDS011;34578;0.000;0.000;2023-06-14T21:44:20;3.40;;;2.93;;
48777;SDS011;34578;0.000;0.000;2023-06-14T21:49:21;2.95;;;2.65;;
48777;SDS011;34578;0.000;0.000;2023-06-14T21:54:21;3.03;;;2.40;;
48777;SDS011;34578;0.000;0.000;2023-06-14T21:59:21;3.37;;;2.10;;
48777;SDS011;34578;0.000;0.000;2023-06-14T22:04:22;2.80;;;2.33;;
48777;SDS011;34578;0.000;0.000;2023-06-14T22:09:22;2.90;;;2.40;;
48777;SDS011;34578;0.000;0.000;2023-06-14T22:14:25;2.70;;;2.50;;
48777;SDS011;34578;0.000;0.000;2023-06-14T22:19:30;3.78;;;2.80;;
48777;SDS011;34578;0.000;0.000;2023-06-14T22:24:31;3.47;;;3.17;;
48777;SDS011;34578;0.000;0.000;2023-06-14T22:29:32;3.05;;;2.70;;
48777;SDS011;34578;0.000;0.000;2023-06-14T22:34:33;3.75;;;3.05;;
48777;SDS011;34578;0.000;0.000;2023-06-14T22:39:38;4.43;;;3.08;;
48777;SDS011;34578;0.000;0.000;2023-06-14T22:44:39;2.50;;;2.30;;
48777;SDS011;34578;0.000;0.000;2023-06-14T22:49:40;2.92;;;2.40;;
48777;SDS011;34578;0.000;0.000;2023-06-14T22:54:40;5.47;;;2.60;;
48777;SDS011;34578;0.000;0.000;2023-06-14T22:59:44;4.53;;;2.50;;
48777;SDS011;34578;0.000;0.000;2023-06-14T23:04:45;3.10;;;2.57;;
48777;SDS011;34578;0.000;0.000;2023-06-14T23:09:47;3.85;;;3.10;;
48777;SDS011;34578;0.000;0.000;2023-06-14T23:14:48;4.28;;;3.42;;
48777;SDS011;34578;0.000;0.000;2023-06-14T23:19:48;4.40;;;3.45;;
48777;SDS011;34578;0.000;0.000;2023-06-14T23:24:49;3.63;;;3.00;;
48777;SDS011;34578;0.000;0.000;2023-06-14T23:29:51;3.28;;;2.55;;
48777;SDS011;34578;0.000;0.000;2023-06-14T23:34:53;2.97;;;2.72;;
48777;SDS011;34578;0.000;0.000;2023-06-14T23:39:55;3.53;;;3.10;;
48777;SDS011;34578;0.000;0.000;2023-06-14T23:44:57;3.80;;;2.22;;
48777;SDS011;34578;0.000;0.000;2023-06-14T23:50:00;3.03;;;2.58;;
48777;SDS011;34578;0.000;0.000;2023-06-14T23:55:01;3.10;;;2.80;;
